Time;durP1;ratioP1;P1;durP2;ratioP2;P2;SDS_P1;SDS_P2;PMS_P1;PMS_P2;Temp;Humidity;BMP_temperature;BMP_pressure;BME280_temperature;BME280_humidity;BME280_pressure;Samples;Min_cycle;Max_cycle;Signal;HPM_P1;HPM_P2
2022/06/07 00:01:36;;;;;;;22.50;15.52;;;12.70;99.90;;;;;;5050836;28;20049;-60
2022/06/07 00:04:03;;;;;;;23.45;16.73;;;12.80;99.90;;;;;;5051033;28;20037;-60
2022/06/07 00:06:29;;;;;;;22.27;16.25;;;12.60;99.90;;;;;;5051028;28;20086;-60
2022/06/07 00:08:55;;;;;;;27.25;17.67;;;12.60;99.90;;;;;;5051082;28;20033;-60
2022/06/07 00:11:21;;;;;;;23.80;17.38;;;12.70;99.90;;;;;;5051103;28;20048;-60
2022/06/07 00:13:47;;;;;;;23.83;18.17;;;;;;;;;;5051204;28;20037;-60
2022/06/07 00:16:14;;;;;;;26.02;18.88;;;12.50;99.90;;;;;;5050957;28;20041;-62
2022/06/07 00:18:40;;;;;;;27.45;19.45;;;12.70;99.90;;;;;;5050911;28;20045;-61
2022/06/07 00:21:06;;;;;;;26.88;19.88;;;12.80;99.90;;;;;;5050987;28;20096;-60
2022/06/07 00:23:34;;;;;;;26.70;19.83;;;12.50;99.90;;;;;;5050955;28;20041;-60
2022/06/07 00:26:00;;;;;;;24.05;19.20;;;12.80;99.90;;;;;;5049344;28;20136;-60
2022/06/07 00:28:27;;;;;;;23.00;19.10;;;12.60;99.90;;;;;;5051085;28;20389;-62
2022/06/07 00:30:53;;;;;;;23.45;18.90;;;12.60;99.90;;;;;;5033162;28;20049;-60
2022/06/07 00:33:21;;;;;;;24.00;18.52;;;12.90;99.90;;;;;;5050793;28;20533;-60
2022/06/07 00:35:47;;;;;;;23.88;19.10;;;12.70;99.90;;;;;;5051050;28;20126;-60
2022/06/07 00:38:16;;;;;;;21.48;18.45;;;12.80;99.90;;;;;;5050973;28;20044;-60
2022/06/07 00:40:43;;;;;;;24.73;18.85;;;12.70;99.90;;;;;;5050832;28;20041;-60
2022/06/07 00:43:09;;;;;;;23.63;18.27;;;12.90;99.90;;;;;;5051049;28;20048;-61
2022/06/07 00:45:36;;;;;;;22.20;18.40;;;13.00;99.90;;;;;;5050789;28;20037;-60
2022/06/07 00:48:04;;;;;;;24.42;18.77;;;12.80;99.90;;;;;;5050728;28;20029;-60
2022/06/07 00:50:52;;;;;;;21.83;17.67;;;12.70;99.90;;;;;;5049285;28;20037;-60
2022/06/07 00:53:27;;;;;;;23.00;17.73;;;13.00;99.90;;;;;;5050509;28;20049;-60
2022/06/07 00:55:54;;;;;;;20.98;17.30;;;12.80;99.90;;;;;;5050429;28;20107;-60
2022/06/07 00:58:21;;;;;;;21.88;17.17;;;12.70;99.90;;;;;;5050537;28;20069;-60
2022/06/07 01:00:47;;;;;;;19.38;16.55;;;12.70;99.90;;;;;;5052434;22;20140;-57
2022/06/07 01:03:14;;;;;;;19.83;17.25;;;12.80;99.90;;;;;;5036326;28;20057;-57
2022/06/07 01:05:40;;;;;;;19.52;16.50;;;;;;;;;;5030504;28;20034;-57
2022/06/07 01:10:55;;;;;;;18.70;16.63;;;12.40;99.90;;;;;;5014278;28;20053;-57
2022/06/07 01:13:25;;;;;;;22.60;17.05;;;12.80;99.90;;;;;;5014834;28;20048;-57
2022/06/07 01:15:56;;;;;;;19.90;16.58;;;12.90;99.90;;;;;;5014459;28;20084;-57
2022/06/07 01:18:22;;;;;;;22.40;16.45;;;12.80;99.90;;;;;;5029131;28;20336;-57
2022/06/07 01:21:10;;;;;;;18.25;15.98;;;12.80;99.90;;;;;;5033959;28;20076;-57
2022/06/07 01:23:35;;;;;;;19.85;15.90;;;12.90;99.90;;;;;;5033879;28;20041;-57
2022/06/07 01:26:03;;;;;;;17.63;14.95;;;12.90;99.90;;;;;;5034167;28;20057;-57
2022/06/07 01:28:29;;;;;;;19.33;15.23;;;;;;;;;;5033872;28;20307;-57
2022/06/07 01:30:57;;;;;;;20.58;14.93;;;12.80;99.90;;;;;;5034208;28;20049;-57
2022/06/07 01:33:23;;;;;;;19.60;15.40;;;12.80;99.90;;;;;;5033964;28;20098;-57
2022/06/07 01:36:00;;;;;;;19.40;14.15;;;13.10;99.90;;;;;;5016019;28;20033;-57
2022/06/07 01:38:26;;;;;;;21.48;14.30;;;12.80;99.90;;;;;;5014183;28;20056;-57
2022/06/07 01:43:35;;;;;;;18.27;13.38;;;13.00;99.90;;;;;;5013875;28;20389;-59
2022/06/07 01:46:05;;;;;;;17.10;14.07;;;12.70;99.90;;;;;;5013755;28;20034;-59
2022/06/07 01:48:30;;;;;;;18.77;13.98;;;12.70;99.90;;;;;;5013738;28;20133;-59
2022/06/07 01:51:05;;;;;;;16.25;14.13;;;13.00;99.90;;;;;;5013719;28;20113;-57
2022/06/07 01:53:31;;;;;;;18.55;14.60;;;12.30;99.90;;;;;;5013571;28;20504;-57
2022/06/07 01:56:13;;;;;;;18.80;14.40;;;12.60;99.90;;;;;;5013645;28;20080;-57
2022/06/07 01:58:44;;;;;;;18.27;14.25;;;12.50;99.90;;;;;;5014064;28;20069;-57
2022/06/07 02:01:11;;;;;;;20.23;14.38;;;13.00;99.90;;;;;;5013345;28;20058;-57
2022/06/07 02:03:38;;;;;;;19.58;14.75;;;13.20;99.90;;;;;;5013384;28;20049;-57
2022/06/07 02:06:06;;;;;;;15.40;13.13;;;12.90;99.90;;;;;;5012426;28;20084;-57
2022/06/07 02:08:36;;;;;;;22.58;15.00;;;12.60;99.90;;;;;;5019418;28;20038;-57
2022/06/07 02:11:08;;;;;;;19.23;15.25;;;12.20;99.90;;;;;;5033322;28;20056;-57
2022/06/07 02:13:35;;;;;;;18.92;14.68;;;12.80;99.90;;;;;;5032727;28;20045;-57
2022/06/07 02:16:01;;;;;;;23.63;15.65;;;12.90;99.90;;;;;;5033058;28;20047;-56
2022/06/07 02:18:27;;;;;;;24.20;16.80;;;13.20;99.90;;;;;;5032992;28;20043;-57
2022/06/07 02:20:57;;;;;;;19.73;16.15;;;12.90;99.90;;;;;;5032867;28;20045;-57
2022/06/07 02:23:27;;;;;;;19.77;15.70;;;12.90;99.90;;;;;;5015789;28;20501;-57
2022/06/07 02:25:56;;;;;;;19.90;16.15;;;13.10;99.90;;;;;;5032555;28;20045;-57
2022/06/07 02:28:26;;;;;;;21.02;16.80;;;12.80;99.90;;;;;;5032701;28;20366;-57
2022/06/07 02:30:53;;;;;;;19.95;16.08;;;12.70;99.90;;;;;;5032698;28;20037;-57
2022/06/07 02:33:22;;;;;;;19.77;15.80;;;12.90;99.90;;;;;;5032886;28;20043;-57
2022/06/07 02:35:48;;;;;;;26.35;16.27;;;12.80;99.90;;;;;;5032661;28;20049;-59
2022/06/07 02:38:14;;;;;;;22.88;17.08;;;12.80;99.90;;;;;;5032407;28;20041;-59
2022/06/07 02:40:41;;;;;;;21.35;16.27;;;12.90;99.90;;;;;;5032321;28;20037;-59
2022/06/07 02:43:09;;;;;;;25.88;16.80;;;12.90;99.90;;;;;;5015141;28;20502;-59
2022/06/07 02:45:34;;;;;;;23.08;16.33;;;12.80;99.90;;;;;;5032500;28;20077;-60
2022/06/07 02:48:00;;;;;;;22.35;16.95;;;13.00;99.90;;;;;;5032266;28;20512;-59
2022/06/07 02:50:26;;;;;;;23.42;17.30;;;12.80;99.90;;;;;;5032174;28;20064;-60
2022/06/07 02:52:52;;;;;;;22.50;17.52;;;12.50;99.90;;;;;;5032580;28;20041;-59
2022/06/07 02:55:18;;;;;;;24.33;17.67;;;12.50;99.90;;;;;;5014538;28;20045;-59
2022/06/07 02:57:44;;;;;;;25.25;18.58;;;13.40;99.90;;;;;;5032109;28;20050;-59
2022/06/07 03:00:13;;;;;;;21.88;18.10;;;13.00;99.90;;;;;;5032219;28;20041;-59
2022/06/07 03:02:41;;;;;;;26.63;18.98;;;13.00;99.90;;;;;;5014787;28;20407;-59
2022/06/07 03:05:07;;;;;;;24.70;18.90;;;12.80;99.90;;;;;;5031984;28;20447;-59
2022/06/07 03:07:34;;;;;;;23.13;18.17;;;12.90;99.90;;;;;;5031838;28;20068;-59
2022/06/07 03:10:00;;;;;;;22.65;18.23;;;12.40;99.90;;;;;;5032136;28;20038;-59
2022/06/07 03:12:25;;;;;;;23.42;18.55;;;12.60;99.90;;;;;;5032212;28;20477;-59
2022/06/07 03:14:53;;;;;;;24.73;17.95;;;13.20;99.90;;;;;;5032288;28;20041;-59
2022/06/07 03:17:19;;;;;;;22.95;17.42;;;12.90;99.90;;;;;;5031738;28;20045;-57
2022/06/07 03:19:44;;;;;;;22.88;17.92;;;12.70;99.90;;;;;;5031780;28;20072;-57
2022/06/07 03:22:12;;;;;;;26.35;19.35;;;12.80;99.90;;;;;;5031686;28;20053;-57
2022/06/07 03:24:38;;;;;;;27.20;18.88;;;12.70;99.90;;;;;;5031967;28;20033;-57
2022/06/07 03:27:07;;;;;;;26.55;18.73;;;12.50;99.90;;;;;;5031901;28;20037;-57
2022/06/07 03:29:33;;;;;;;22.92;17.77;;;12.90;99.90;;;;;;5031811;28;20045;-57
2022/06/07 03:32:02;;;;;;;23.70;17.77;;;12.90;99.90;;;;;;5031077;28;20473;-57
2022/06/07 03:34:27;;;;;;;22.83;18.15;;;12.90;99.90;;;;;;5032217;28;20049;-57
2022/06/07 03:36:53;;;;;;;22.58;17.50;;;13.00;99.90;;;;;;5031414;28;20386;-57
2022/06/07 03:39:19;;;;;;;23.17;17.83;;;12.80;99.90;;;;;;5031494;28;20041;-57
2022/06/07 03:41:45;;;;;;;23.00;18.15;;;13.10;99.90;;;;;;5031596;28;20503;-61
2022/06/07 03:44:12;;;;;;;22.40;17.95;;;12.50;99.90;;;;;;5031745;28;20500;-60
2022/06/07 03:46:38;;;;;;;22.67;17.95;;;;;;;;;;5031704;28;20045;-60
2022/06/07 03:49:04;;;;;;;23.83;18.67;;;;;;;;;;5031319;28;20095;-60
2022/06/07 03:51:30;;;;;;;24.02;18.58;;;12.90;99.90;;;;;;5024265;28;20034;-60
2022/06/07 03:53:57;;;;;;;22.60;18.58;;;12.70;99.90;;;;;;5031818;28;20033;-60
2022/06/07 03:56:24;;;;;;;22.73;18.15;;;13.00;99.90;;;;;;5031471;28;20072;-59
2022/06/07 03:58:51;;;;;;;24.92;18.17;;;13.50;99.90;;;;;;5011470;28;20045;-59
2022/06/07 04:01:19;;;;;;;23.52;17.60;;;13.00;99.90;;;;;;5023256;28;20056;-57
2022/06/07 04:03:46;;;;;;;26.90;18.15;;;12.90;99.90;;;;;;5007544;28;20459;-57
2022/06/07 04:06:23;;;;;;;20.08;16.75;;;12.40;99.90;;;;;;5020082;28;20038;-57
2022/06/07 04:08:50;;;;;;;23.08;17.02;;;13.00;99.90;;;;;;5022810;28;20076;-57
2022/06/07 04:11:20;;;;;;;20.73;16.52;;;12.90;99.90;;;;;;5022408;28;20504;-57
2022/06/07 04:13:50;;;;;;;24.40;16.33;;;12.90;99.90;;;;;;5021326;28;20750;-57
2022/06/07 04:16:18;;;;;;;21.40;16.52;;;13.20;99.90;;;;;;5029979;28;20049;-57
2022/06/07 04:18:45;;;;;;;23.77;16.48;;;13.20;99.90;;;;;;5029183;28;20037;-57
2022/06/07 04:21:12;;;;;;;22.80;16.52;;;13.00;99.90;;;;;;5029095;28;20151;-60
2022/06/07 04:23:38;;;;;;;21.63;16.70;;;13.30;99.90;;;;;;5029956;28;20097;-57
2022/06/07 04:26:10;;;;;;;22.13;15.57;;;13.40;99.90;;;;;;5029601;28;20060;-57
2022/06/07 04:28:35;;;;;;;20.10;15.80;;;13.30;99.90;;;;;;5030695;28;20199;-57
2022/06/07 04:31:02;;;;;;;20.80;16.33;;;13.00;99.90;;;;;;5030606;28;20180;-57
2022/06/07 04:33:29;;;;;;;20.88;16.02;;;12.80;99.90;;;;;;5029552;28;20050;-56
2022/06/07 04:35:54;;;;;;;20.58;15.70;;;13.30;99.90;;;;;;5031171;28;20037;-57
2022/06/07 04:38:20;;;;;;;22.30;16.50;;;12.80;99.90;;;;;;5031048;28;20064;-57
2022/06/07 04:40:46;;;;;;;21.50;15.82;;;13.20;99.90;;;;;;5030908;28;20045;-57
2022/06/07 04:43:12;;;;;;;22.10;15.52;;;13.10;99.90;;;;;;5030744;28;20077;-57
2022/06/07 04:45:39;;;;;;;21.33;15.15;;;12.70;99.90;;;;;;5034466;28;20045;-57
2022/06/07 04:48:07;;;;;;;23.42;15.98;;;13.20;99.90;;;;;;5034797;28;20037;-57
2022/06/07 04:50:33;;;;;;;20.45;15.50;;;13.00;99.90;;;;;;5034646;28;20044;-57
2022/06/07 04:52:58;;;;;;;20.80;15.82;;;13.10;99.90;;;;;;5034769;28;20033;-57
2022/06/07 04:55:24;;;;;;;21.45;15.23;;;13.30;99.90;;;;;;5016971;28;20077;-57
2022/06/07 04:57:50;;;;;;;20.08;15.02;;;13.00;99.90;;;;;;5034699;28;20065;-57
2022/06/07 05:00:18;;;;;;;18.13;14.85;;;13.00;99.90;;;;;;5034193;28;20045;-57
2022/06/07 05:02:45;;;;;;;18.48;13.55;;;12.40;99.90;;;;;;5034529;28;20068;-57
2022/06/07 05:05:14;;;;;;;21.75;14.90;;;13.30;99.90;;;;;;5034315;28;20037;-57
2022/06/07 05:07:40;;;;;;;21.45;15.05;;;12.70;99.90;;;;;;5034086;28;20096;-57
2022/06/07 05:10:08;;;;;;;19.25;14.60;;;13.40;99.90;;;;;;5034461;28;20056;-57
2022/06/07 05:12:35;;;;;;;21.55;14.52;;;13.50;99.90;;;;;;5033980;28;20524;-57
2022/06/07 05:15:02;;;;;;;21.83;14.68;;;13.90;99.90;;;;;;5034276;28;20042;-57
2022/06/07 05:17:27;;;;;;;20.67;14.90;;;13.40;99.90;;;;;;5034804;28;20044;-57
2022/06/07 05:19:57;;;;;;;19.23;14.85;;;13.50;99.90;;;;;;5034192;28;20103;-58
2022/06/07 05:22:24;;;;;;;19.48;14.50;;;13.60;99.90;;;;;;5033664;28;20068;-58
2022/06/07 05:24:51;;;;;;;22.48;14.27;;;13.50;99.90;;;;;;5033624;28;20045;-58
2022/06/07 05:27:20;;;;;;;18.50;14.02;;;13.90;99.90;;;;;;5033389;28;20137;-58
2022/06/07 05:29:49;;;;;;;21.75;14.43;;;13.70;99.90;;;;;;5034259;28;20452;-57
2022/06/07 05:32:16;;;;;;;19.73;14.68;;;13.40;99.90;;;;;;5033735;28;20033;-58
2022/06/07 05:34:42;;;;;;;20.25;13.77;;;13.50;99.90;;;;;;5033851;28;20273;-57
2022/06/07 05:37:14;;;;;;;21.00;14.35;;;13.60;99.90;;;;;;5015949;28;20037;-57
2022/06/07 05:39:40;;;;;;;18.90;14.35;;;;;;;;;;5033897;28;20433;-58
2022/06/07 05:42:07;;;;;;;17.30;13.57;;;13.60;99.90;;;;;;5033810;28;20116;-57
2022/06/07 05:44:36;;;;;;;21.25;14.32;;;14.00;99.90;;;;;;5033551;28;20045;-58
2022/06/07 05:47:02;;;;;;;20.75;14.13;;;13.70;99.90;;;;;;5015661;28;20428;-57
2022/06/07 05:49:29;;;;;;;21.38;13.73;;;13.70;99.90;;;;;;5034036;28;20037;-58
2022/06/07 05:51:55;;;;;;;18.50;13.65;;;13.90;99.90;;;;;;5033427;28;20068;-58
2022/06/07 05:54:20;;;;;;;20.15;14.13;;;13.60;99.90;;;;;;5032729;28;20134;-57
2022/06/07 05:56:46;;;;;;;19.80;13.82;;;13.70;99.90;;;;;;5033460;28;20060;-57
2022/06/07 05:59:12;;;;;;;19.88;14.32;;;;;;;;;;5033358;28;20042;-58
2022/06/07 06:01:38;;;;;;;21.05;14.23;;;13.90;99.90;;;;;;5033003;28;20057;-58
2022/06/07 06:04:06;;;;;;;18.90;14.05;;;13.50;99.90;;;;;;5033280;28;20481;-58
2022/06/07 06:06:33;;;;;;;18.65;13.60;;;14.00;99.90;;;;;;5033075;28;20129;-57
2022/06/07 06:11:44;;;;;;;20.92;13.82;;;;;;;;;;5033510;28;20065;-58
2022/06/07 06:14:10;;;;;;;18.38;13.00;;;13.80;99.90;;;;;;5033121;28;20044;-58
2022/06/07 06:16:37;;;;;;;17.25;13.02;;;14.10;99.90;;;;;;5032941;28;20045;-59
2022/06/07 06:19:03;;;;;;;16.20;13.05;;;14.60;99.90;;;;;;5032924;28;20396;-58
2022/06/07 06:21:34;;;;;;;22.13;13.02;;;14.40;99.90;;;;;;5032939;28;20037;-59
2022/06/07 06:24:00;;;;;;;19.40;13.30;;;14.20;99.90;;;;;;5032851;28;20045;-58
2022/06/07 06:26:29;;;;;;;16.63;12.98;;;14.50;99.90;;;;;;5032738;28;20124;-59
2022/06/07 06:28:55;;;;;;;18.77;12.90;;;14.80;99.90;;;;;;5033046;28;20073;-58
2022/06/07 06:31:22;;;;;;;17.70;13.15;;;15.20;99.90;;;;;;5032684;28;20061;-58
2022/06/07 06:33:51;;;;;;;21.15;13.40;;;15.20;99.90;;;;;;5032775;28;20033;-58
2022/06/07 06:36:23;;;;;;;18.48;13.20;;;14.80;99.90;;;;;;5032685;28;20129;-58
2022/06/07 06:38:49;;;;;;;21.17;13.48;;;15.00;99.90;;;;;;5015035;28;20041;-58
2022/06/07 06:41:24;;;;;;;20.00;13.00;;;14.70;99.90;;;;;;5032550;28;20044;-58
2022/06/07 06:43:51;;;;;;;18.10;12.38;;;14.60;99.90;;;;;;5032691;28;20153;-58
2022/06/07 06:46:23;;;;;;;19.70;13.40;;;14.50;99.90;;;;;;5014532;28;20087;-58
2022/06/07 06:48:50;;;;;;;16.75;12.93;;;14.50;99.90;;;;;;5032226;28;20072;-58
2022/06/07 06:51:22;;;;;;;16.48;13.02;;;14.40;99.90;;;;;;5032403;28;20068;-59
2022/06/07 06:53:48;;;;;;;19.13;12.05;;;;;;;;;;5032350;28;20095;-59
2022/06/07 06:56:20;;;;;;;17.48;12.15;;;14.40;99.90;;;;;;5014962;28;20064;-58
2022/06/07 06:58:49;;;;;;;18.42;13.25;;;14.70;99.90;;;;;;5032005;28;20068;-58
2022/06/07 07:01:17;;;;;;;20.45;12.77;;;14.40;99.90;;;;;;5014394;28;20103;-59
2022/06/07 07:03:44;;;;;;;20.08;13.40;;;13.80;99.90;;;;;;5031965;28;20041;-58
2022/06/07 07:06:13;;;;;;;17.13;13.27;;;14.10;99.90;;;;;;5031653;28;20037;-58
2022/06/07 07:08:42;;;;;;;20.95;13.07;;;14.00;99.90;;;;;;5014397;28;20033;-58
2022/06/07 07:11:13;;;;;;;19.15;13.45;;;14.10;99.90;;;;;;5031939;28;20476;-58
2022/06/07 07:13:41;;;;;;;20.38;13.52;;;13.80;99.90;;;;;;5031770;28;20064;-58
2022/06/07 07:16:12;;;;;;;21.33;14.15;;;13.90;99.90;;;;;;5032132;28;20457;-59
2022/06/07 07:18:38;;;;;;;20.17;14.05;;;13.80;99.90;;;;;;5031910;28;20049;-59
2022/06/07 07:21:06;;;;;;;21.63;15.05;;;13.80;99.90;;;;;;5014200;28;20046;-58
2022/06/07 07:23:35;;;;;;;19.25;13.88;;;13.80;99.90;;;;;;5031687;28;20041;-58
2022/06/07 07:26:10;;;;;;;26.83;14.40;;;14.00;99.90;;;;;;5031366;28;20045;-58
2022/06/07 07:28:38;;;;;;;19.80;13.82;;;14.10;99.90;;;;;;5032015;28;20047;-58
2022/06/07 07:31:07;;;;;;;20.58;13.70;;;13.90;99.90;;;;;;5031538;28;20396;-58
2022/06/07 07:33:34;;;;;;;19.75;13.00;;;13.70;99.90;;;;;;5031469;28;20041;-58
2022/06/07 07:36:02;;;;;;;20.38;13.18;;;13.70;99.90;;;;;;5031347;28;20147;-58
2022/06/07 07:38:28;;;;;;;28.17;13.13;;;13.60;99.90;;;;;;5013940;28;20052;-58
2022/06/07 07:40:53;;;;;;;20.05;13.15;;;13.80;99.90;;;;;;5031619;28;20484;-58
2022/06/07 07:43:20;;;;;;;22.63;13.13;;;13.80;99.90;;;;;;5031630;28;20369;-58
2022/06/07 07:45:46;;;;;;;23.25;12.95;;;13.80;99.90;;;;;;5030851;28;20053;-58
2022/06/07 07:48:12;;;;;;;18.67;12.52;;;13.80;99.90;;;;;;5013908;28;20504;-58
2022/06/07 07:50:39;;;;;;;22.25;12.77;;;14.00;99.90;;;;;;5031360;28;20048;-59
2022/06/07 07:53:05;;;;;;;20.52;12.93;;;13.40;99.90;;;;;;5031506;28;20046;-59
2022/06/07 07:55:32;;;;;;;24.98;12.65;;;13.20;99.90;;;;;;5031331;28;20033;-59
2022/06/07 07:57:58;;;;;;;22.13;13.27;;;13.90;99.90;;;;;;5030919;28;20428;-58
2022/06/07 08:00:24;;;;;;;23.95;12.90;;;13.90;99.90;;;;;;5031419;28;20041;-58
2022/06/07 08:02:52;;;;;;;20.35;12.13;;;13.80;99.90;;;;;;5030898;28;20065;-58
2022/06/07 08:05:20;;;;;;;19.58;12.07;;;13.00;99.90;;;;;;5031639;28;20064;-58
2022/06/07 08:07:46;;;;;;;19.02;12.57;;;13.40;99.90;;;;;;5031046;28;20552;-58
2022/06/07 08:10:13;;;;;;;19.83;11.75;;;14.00;99.90;;;;;;5013723;28;20378;-58
2022/06/07 08:12:39;;;;;;;19.15;12.55;;;13.20;99.90;;;;;;5030895;28;20607;-58
2022/06/07 08:15:06;;;;;;;24.98;12.90;;;14.00;99.90;;;;;;5030949;28;20060;-58
2022/06/07 08:17:33;;;;;;;20.77;13.65;;;13.80;99.90;;;;;;5031579;28;20037;-58
2022/06/07 08:19:59;;;;;;;23.42;13.23;;;13.70;99.90;;;;;;5035163;28;20160;-58
2022/06/07 08:22:24;;;;;;;20.45;12.63;;;13.80;99.90;;;;;;5034724;28;20049;-58
2022/06/07 08:24:50;;;;;;;25.05;14.15;;;14.30;99.90;;;;;;5034836;28;20029;-58
2022/06/07 08:27:16;;;;;;;25.88;13.88;;;13.90;99.90;;;;;;5034748;28;20060;-59
2022/06/07 08:29:42;;;;;;;22.05;13.70;;;14.30;99.90;;;;;;5035099;28;20041;-58
2022/06/07 08:32:08;;;;;;;28.95;13.98;;;14.20;99.90;;;;;;5034899;28;20523;-58
2022/06/07 08:37:36;;;;;;;21.52;13.43;;;14.30;99.90;;;;;;5034994;28;20056;-59
2022/06/07 08:40:14;;;;;;;24.25;13.15;;;14.30;99.90;;;;;;5035077;28;20400;-58
2022/06/07 08:43:15;;;;;;;22.50;13.82;;;14.80;99.90;;;;;;5034822;28;20041;-58
2022/06/07 08:45:42;;;;;;;21.48;13.48;;;14.20;99.90;;;;;;5024188;28;20497;-58
2022/06/07 08:48:22;;;;;;;21.25;13.25;;;14.30;99.90;;;;;;5034556;28;20044;-58
2022/06/07 08:51:19;;;;;;;18.63;12.57;;;14.40;99.90;;;;;;5034070;28;20107;-58
2022/06/07 08:53:50;;;;;;;22.42;13.38;;;14.30;99.90;;;;;;5034715;28;20172;-57
2022/06/07 08:56:20;;;;;;;20.40;13.43;;;14.10;99.90;;;;;;5034485;28;20045;-57
2022/06/07 08:58:51;;;;;;;17.98;12.90;;;14.30;99.90;;;;;;5034789;28;20423;-57
2022/06/07 09:01:33;;;;;;;18.58;12.82;;;14.30;99.90;;;;;;5034520;28;20072;-58
2022/06/07 09:04:16;;;;;;;18.60;12.65;;;14.20;99.90;;;;;;5034291;28;20056;-58
2022/06/07 09:06:47;;;;;;;20.25;12.95;;;14.40;99.90;;;;;;5034521;28;20052;-57
2022/06/07 09:09:15;;;;;;;22.05;12.18;;;14.30;99.90;;;;;;5034509;28;20512;-58
2022/06/07 09:14:45;;;;;;;18.95;12.07;;;14.40;99.90;;;;;;5034629;28;20103;-57
2022/06/07 09:17:20;;;;;;;19.05;12.70;;;14.40;99.90;;;;;;5034448;28;20116;-58
2022/06/07 09:19:48;;;;;;;18.43;12.17;;;14.40;99.90;;;;;;5034243;28;20120;-58
2022/06/07 09:22:25;;;;;;;20.60;12.77;;;14.20;99.90;;;;;;5033979;28;20045;-58
2022/06/07 09:24:51;;;;;;;16.23;11.27;;;14.30;99.90;;;;;;5034158;28;20056;-58
2022/06/07 09:27:22;;;;;;;16.60;11.43;;;14.40;99.90;;;;;;5034390;28;20253;-58
2022/06/07 09:29:59;;;;;;;18.40;11.20;;;14.40;99.90;;;;;;5033238;28;20044;-58
2022/06/07 09:32:28;;;;;;;17.73;10.80;;;14.20;99.90;;;;;;5034390;28;20041;-58
2022/06/07 09:35:05;;;;;;;15.65;11.10;;;14.50;99.90;;;;;;4999802;28;20076;-58
2022/06/07 09:37:47;;;;;;;18.75;10.90;;;14.30;99.90;;;;;;5034037;28;20099;-58
2022/06/07 09:40:30;;;;;;;19.50;11.32;;;14.50;99.90;;;;;;5033855;28;20512;-59
2022/06/07 09:43:16;;;;;;;21.00;11.57;;;14.80;99.90;;;;;;5034057;28;20432;-58
2022/06/07 09:45:44;;;;;;;19.80;11.00;;;15.00;99.90;;;;;;5033492;28;20393;-58
2022/06/07 09:48:25;;;;;;;18.45;10.75;;;14.60;99.90;;;;;;5033682;28;20512;-58
2022/06/07 09:51:19;;;;;;;16.15;10.48;;;14.80;99.90;;;;;;5033436;28;20037;-58
2022/06/07 09:54:07;;;;;;;16.63;11.10;;;14.70;99.90;;;;;;5033393;28;20528;-58
2022/06/07 09:57:08;;;;;;;15.23;10.20;;;14.60;99.90;;;;;;5022682;28;20449;-58
2022/06/07 09:59:40;;;;;;;16.75;10.70;;;14.70;99.90;;;;;;5033363;28;20080;-58
2022/06/07 10:02:12;;;;;;;16.05;10.73;;;14.60;99.90;;;;;;5033343;28;20416;-58
2022/06/07 10:04:59;;;;;;;14.75;10.10;;;14.70;99.90;;;;;;5033470;28;20053;-59
2022/06/07 10:07:39;;;;;;;16.80;10.23;;;14.90;99.90;;;;;;5033514;28;20107;-58
2022/06/07 10:10:29;;;;;;;17.27;10.63;;;14.90;99.90;;;;;;5033156;28;20037;-58
2022/06/07 10:13:05;;;;;;;15.23;9.80;;;15.80;99.90;;;;;;5033023;28;20041;-59
2022/06/07 10:15:50;;;;;;;15.55;9.27;;;15.70;99.90;;;;;;5033395;28;20141;-59
2022/06/07 10:18:37;;;;;;;14.05;9.55;;;16.10;99.90;;;;;;5033329;28;20165;-59
2022/06/07 10:21:09;;;;;;;14.07;8.98;;;16.20;99.90;;;;;;5032768;28;20041;-59
2022/06/07 10:23:54;;;;;;;14.27;8.73;;;16.30;99.90;;;;;;5014987;28;20053;-59
2022/06/07 10:26:26;;;;;;;13.95;8.98;;;16.20;99.90;;;;;;5032831;28;20080;-59
2022/06/07 10:29:17;;;;;;;15.68;8.15;;;15.80;99.90;;;;;;5032923;28;20068;-58
2022/06/07 10:31:54;;;;;;;15.52;7.93;;;16.30;99.90;;;;;;5005620;28;20049;-58
2022/06/07 10:34:41;;;;;;;13.95;7.85;;;16.30;99.90;;;;;;5032827;28;20489;-58
2022/06/07 10:37:39;;;;;;;11.32;7.47;;;16.30;99.90;;;;;;5032701;28;20519;-59
2022/06/07 10:40:16;;;;;;;12.18;7.50;;;16.30;99.90;;;;;;5032787;28;20042;-58
2022/06/07 10:42:55;;;;;;;17.58;7.85;;;16.40;99.90;;;;;;5032658;28;20041;-59
2022/06/07 10:45:26;;;;;;;13.73;7.35;;;16.40;99.90;;;;;;5032435;28;20497;-60
2022/06/07 10:48:09;;;;;;;14.27;7.40;;;16.50;99.90;;;;;;5032378;28;20040;-58
2022/06/07 10:50:45;;;;;;;15.05;7.97;;;16.60;99.90;;;;;;5032937;28;20444;-59
2022/06/07 10:53:11;;;;;;;12.57;8.23;;;17.70;99.90;;;;;;5032449;28;20345;-59
2022/06/07 10:55:59;;;;;;;15.63;7.40;;;16.80;99.90;;;;;;5032251;28;20075;-59
2022/06/07 10:58:30;;;;;;;11.75;7.10;;;16.70;99.90;;;;;;5031938;28;20076;-59
2022/06/07 11:00:58;;;;;;;12.77;7.95;;;16.60;99.90;;;;;;5031873;28;20568;-58
2022/06/07 11:03:31;;;;;;;13.52;7.95;;;16.70;99.90;;;;;;5032642;28;20136;-59
2022/06/07 11:09:19;;;;;;;11.80;7.45;;;16.70;99.90;;;;;;5031895;28;20180;-59
2022/06/07 11:11:48;;;;;;;11.75;7.60;;;16.70;99.90;;;;;;5032192;28;20040;-59
2022/06/07 11:14:28;;;;;;;13.93;7.88;;;16.70;99.90;;;;;;5032062;28;20037;-59
2022/06/07 11:17:01;;;;;;;15.18;7.93;;;16.70;99.90;;;;;;5014478;28;20477;-59
2022/06/07 11:19:27;;;;;;;12.00;7.53;;;16.60;99.90;;;;;;5032225;28;20048;-59
2022/06/07 11:22:01;;;;;;;9.93;7.03;;;16.60;99.90;;;;;;5031852;28;20139;-59
2022/06/07 11:24:28;;;;;;;14.25;7.90;;;16.60;99.90;;;;;;5014269;28;20132;-59
2022/06/07 11:26:54;;;;;;;13.45;7.80;;;16.70;99.90;;;;;;5031956;28;20049;-59
2022/06/07 11:29:23;;;;;;;18.27;8.27;;;16.80;99.90;;;;;;5031804;28;20430;-59
2022/06/07 11:31:50;;;;;;;17.95;8.63;;;16.40;99.90;;;;;;5031972;28;20048;-59
2022/06/07 11:34:29;;;;;;;12.10;8.02;;;17.10;99.90;;;;;;5031622;28;20042;-59
2022/06/07 11:37:13;;;;;;;14.20;8.20;;;17.20;99.90;;;;;;5031667;28;20033;-59
2022/06/07 11:39:38;;;;;;;14.35;7.88;;;17.30;99.90;;;;;;5031496;28;20088;-59
2022/06/07 11:42:07;;;;;;;16.95;8.52;;;17.40;99.90;;;;;;5032207;28;20069;-59
2022/06/07 11:45:00;;;;;;;16.38;8.27;;;17.70;99.90;;;;;;5031625;28;20053;-59
2022/06/07 11:47:30;;;;;;;15.38;8.30;;;17.60;99.90;;;;;;5031505;28;20499;-58
2022/06/07 11:49:59;;;;;;;14.40;8.02;;;17.80;99.90;;;;;;5031401;28;20458;-58
2022/06/07 11:52:33;;;;;;;14.95;8.25;;;18.00;99.90;;;;;;5031530;28;20068;-59
2022/06/07 11:55:21;;;;;;;12.23;7.53;;;18.20;99.90;;;;;;5031654;28;20037;-59
2022/06/07 11:57:53;;;;;;;20.05;8.10;;;18.30;99.90;;;;;;5031577;28;20042;-59
2022/06/07 12:00:18;;;;;;;13.75;8.05;;;18.40;99.90;;;;;;5031322;28;20029;-59
2022/06/07 12:03:10;;;;;;;14.57;7.95;;;18.50;99.90;;;;;;5031063;28;20512;-59
2022/06/07 12:05:42;;;;;;;14.80;8.13;;;18.40;99.90;;;;;;5024233;28;20050;-59
2022/06/07 12:08:28;;;;;;;13.88;7.82;;;18.40;99.90;;;;;;5031189;28;20378;-59
2022/06/07 12:11:42;;;;;;;13.85;7.78;;;18.40;99.90;;;;;;5031386;28;20046;-59
2022/06/07 12:14:14;;;;;;;15.82;8.10;;;18.20;99.90;;;;;;5028404;28;20124;-59
2022/06/07 12:16:44;;;;;;;13.23;7.63;;;18.50;99.90;;;;;;5031418;28;20077;-59
2022/06/07 12:19:28;;;;;;;11.40;7.18;;;18.60;99.90;;;;;;5030901;28;20049;-59
2022/06/07 12:22:05;;;;;;;19.52;7.10;;;18.60;99.90;;;;;;5030900;28;20056;-59
2022/06/07 12:24:39;;;;;;;16.17;6.75;;;18.70;99.90;;;;;;5030937;28;20046;-59
2022/06/07 12:27:30;;;;;;;12.95;7.22;;;18.40;99.90;;;;;;5031178;28;20061;-59
2022/06/07 12:30:13;;;;;;;13.32;6.70;;;18.60;99.90;;;;;;5031305;28;20056;-59
2022/06/07 12:32:38;;;;;;;12.48;6.47;;;18.30;99.90;;;;;;5031082;28;20127;-59
2022/06/07 12:35:22;;;;;;;14.77;7.35;;;18.20;99.90;;;;;;5031242;28;20077;-59
2022/06/07 12:37:51;;;;;;;16.02;7.00;;;18.20;99.90;;;;;;5030995;28;20041;-59
2022/06/07 12:40:29;;;;;;;14.00;7.43;;;18.40;99.90;;;;;;5030952;28;20029;-59
2022/06/07 12:42:56;;;;;;;13.00;7.03;;;18.60;99.90;;;;;;5031207;28;20635;-59
2022/06/07 12:45:33;;;;;;;14.57;6.90;;;18.70;99.90;;;;;;5030737;28;20095;-59
2022/06/07 12:48:08;;;;;;;16.52;7.00;;;18.70;99.90;;;;;;5030924;28;20392;-60
2022/06/07 12:50:40;;;;;;;14.93;6.90;;;18.90;99.90;;;;;;5029680;28;20118;-60
2022/06/07 12:53:07;;;;;;;12.65;6.57;;;19.00;99.90;;;;;;5030667;28;20106;-59
2022/06/07 12:55:36;;;;;;;12.38;6.50;;;19.00;99.90;;;;;;5031076;28;20037;-59
2022/06/07 12:58:23;;;;;;;15.40;7.00;;;18.90;99.90;;;;;;5030913;28;20041;-59
2022/06/07 13:00:49;;;;;;;12.13;6.38;;;18.50;99.90;;;;;;5030282;28;20097;-59
2022/06/07 13:03:31;;;;;;;11.80;6.18;;;18.80;99.90;;;;;;5031143;28;20041;-58
2022/06/07 13:06:04;;;;;;;13.05;6.55;;;19.00;99.90;;;;;;5033078;28;20084;-58
2022/06/07 13:08:39;;;;;;;11.73;6.25;;;19.20;99.90;;;;;;5034468;28;20485;-58